createdAt,value
2022-08-02T00:02:40.504Z,4.03
2022-08-02T00:05:25.582Z,3.95
2022-08-02T00:08:10.968Z,4.00
2022-08-02T00:10:56.280Z,3.80
2022-08-02T00:13:41.692Z,3.97
2022-08-02T00:16:38.126Z,3.80
2022-08-02T00:19:23.789Z,4.82
2022-08-02T00:22:09.470Z,5.10
2022-08-02T00:24:54.861Z,5.18
2022-08-02T00:27:40.416Z,4.82
2022-08-02T00:30:27.789Z,4.63
2022-08-02T00:33:13.230Z,4.40
2022-08-02T00:35:58.452Z,4.80
2022-08-02T00:38:44.442Z,6.32
2022-08-02T00:41:29.592Z,6.45
2022-08-02T00:44:16.401Z,5.30
2022-08-02T00:47:01.735Z,5.80
2022-08-02T00:49:47.386Z,6.60
2022-08-02T00:52:32.351Z,5.50
2022-08-02T00:55:17.529Z,5.05
2022-08-02T00:58:09.012Z,7.10
2022-08-02T01:00:54.797Z,5.20
2022-08-02T01:03:40.261Z,5.20
2022-08-02T01:06:25.607Z,5.00
2022-08-02T01:09:10.990Z,5.13
2022-08-02T01:11:56.393Z,5.10
2022-08-02T01:14:49.475Z,4.22
2022-08-02T01:17:38.506Z,3.90
2022-08-02T01:20:23.783Z,4.72
2022-08-02T01:23:35.529Z,4.90
2022-08-02T01:26:39.395Z,4.95
2022-08-02T01:29:34.617Z,4.10
2022-08-02T01:32:25.546Z,3.78
2022-08-02T01:35:20.018Z,3.70
2022-08-02T01:38:14.222Z,3.33
2022-08-02T01:41:02.026Z,4.10
2022-08-02T01:43:51.281Z,3.78
2022-08-02T01:46:40.907Z,4.00
2022-08-02T01:49:29.249Z,4.30
2022-08-02T01:52:16.399Z,4.00
2022-08-02T01:55:07.350Z,3.92
2022-08-02T01:58:00.716Z,4.07
2022-08-02T02:00:48.006Z,3.90
2022-08-02T02:03:35.496Z,4.00
2022-08-02T02:06:27.822Z,3.85
2022-08-02T02:09:15.668Z,3.50
2022-08-02T02:12:06.469Z,4.32
2022-08-02T02:15:02.068Z,4.70
2022-08-02T02:18:13.116Z,4.35
2022-08-02T02:20:57.064Z,5.15
2022-08-02T02:23:42.387Z,4.85
2022-08-02T02:26:31.369Z,5.65
2022-08-02T02:29:20.209Z,3.58
2022-08-02T02:32:06.334Z,3.95
2022-08-02T02:34:53.047Z,4.10
2022-08-02T02:37:38.742Z,4.03
2022-08-02T02:40:25.668Z,3.63
2022-08-02T02:43:12.065Z,4.60
2022-08-02T02:45:58.495Z,4.57
2022-08-02T02:48:43.963Z,4.32
2022-08-02T02:51:29.864Z,5.03
2022-08-02T02:54:30.383Z,4.50
2022-08-02T02:57:20.776Z,4.55
2022-08-02T03:00:12.040Z,4.00
2022-08-02T03:02:57.343Z,4.00
2022-08-02T03:05:45.657Z,4.20
2022-08-02T03:08:30.999Z,3.95
2022-08-02T03:11:17.037Z,4.32
2022-08-02T03:14:05.066Z,3.92
2022-08-02T03:16:54.489Z,4.30
2022-08-02T03:19:39.690Z,3.85
2022-08-02T03:22:25.108Z,3.60
2022-08-02T03:25:11.470Z,3.80
2022-08-02T03:27:56.828Z,4.00
2022-08-02T03:30:42.261Z,4.07
2022-08-02T03:33:28.547Z,3.60
2022-08-02T03:36:16.690Z,3.10
2022-08-02T03:39:03.591Z,3.70
2022-08-02T03:41:49.971Z,3.22
2022-08-02T03:44:36.726Z,3.92
2022-08-02T03:47:23.199Z,3.22
2022-08-02T03:50:11.916Z,3.97
2022-08-02T03:52:57.379Z,3.88
2022-08-02T03:55:42.866Z,4.10
2022-08-02T03:58:27.970Z,4.05
2022-08-02T04:01:13.431Z,4.88
2022-08-02T04:03:58.715Z,7.93
2022-08-02T04:06:44.141Z,9.77
2022-08-02T04:09:30.869Z,12.38
2022-08-02T04:12:16.083Z,12.27
2022-08-02T04:15:02.884Z,11.10
2022-08-02T04:17:54.476Z,13.43
2022-08-02T04:20:39.726Z,12.77
2022-08-02T04:23:26.540Z,13.60
2022-08-02T04:26:12.480Z,14.40
2022-08-02T04:28:59.623Z,12.93
2022-08-02T04:31:45.573Z,12.55
2022-08-02T04:34:31.246Z,11.70
2022-08-02T04:37:16.451Z,11.65
2022-08-02T04:40:01.604Z,11.75
2022-08-02T04:42:46.820Z,12.77
2022-08-02T04:45:32.526Z,13.10
2022-08-02T04:48:17.781Z,12.80
2022-08-02T04:51:03.188Z,12.25
2022-08-02T04:53:48.149Z,12.40
2022-08-02T04:56:33.541Z,10.77
2022-08-02T04:59:19.096Z,12.15
2022-08-02T05:02:04.154Z,10.45
2022-08-02T05:04:49.610Z,10.63
2022-08-02T05:07:36.199Z,12.45
2022-08-02T05:10:21.997Z,11.68
2022-08-02T05:13:07.163Z,10.45
2022-08-02T05:15:52.485Z,12.50
2022-08-02T05:18:37.901Z,10.32
2022-08-02T05:21:23.584Z,11.07
2022-08-02T05:24:09.409Z,11.73
2022-08-02T05:26:54.806Z,11.05
2022-08-02T05:29:40.266Z,10.68
2022-08-02T05:32:46.840Z,10.75
2022-08-02T05:35:31.990Z,10.13
2022-08-02T05:38:17.057Z,11.25
2022-08-02T05:41:05.650Z,12.05
2022-08-02T05:43:50.746Z,12.65
2022-08-02T05:46:36.092Z,12.88
2022-08-02T05:49:21.657Z,14.43
2022-08-02T05:52:15.460Z,12.25
2022-08-02T05:55:11.412Z,12.95
2022-08-02T05:58:20.257Z,13.20
2022-08-02T06:01:05.820Z,13.77
2022-08-02T06:03:52.369Z,13.93
2022-08-02T06:06:38.001Z,12.55
2022-08-02T06:09:27.312Z,14.15
2022-08-02T06:12:16.569Z,16.75
2022-08-02T06:15:04.625Z,14.68
2022-08-02T06:17:50.547Z,14.00
2022-08-02T06:20:36.425Z,16.23
2022-08-02T06:23:22.975Z,15.02
2022-08-02T06:26:11.465Z,17.33
2022-08-02T06:28:58.198Z,17.90
2022-08-02T06:31:45.134Z,18.83
2022-08-02T06:34:30.552Z,16.40
2022-08-02T06:37:36.371Z,18.00
2022-08-02T06:40:56.463Z,16.23
2022-08-02T06:43:55.394Z,16.55
2022-08-02T06:47:11.406Z,17.00
2022-08-02T06:49:51.617Z,18.13
2022-08-02T06:52:39.939Z,23.92
2022-08-02T06:55:25.040Z,19.13
2022-08-02T06:58:10.454Z,17.77
2022-08-02T07:00:56.210Z,17.25
2022-08-02T07:03:41.698Z,18.83
2022-08-02T07:06:26.847Z,16.20
2022-08-02T07:09:21.374Z,16.92
2022-08-02T07:12:07.472Z,15.98
2022-08-02T07:14:53.359Z,16.73
2022-08-02T07:17:38.638Z,15.27
2022-08-02T07:20:24.013Z,13.10
2022-08-02T07:23:09.900Z,11.48
2022-08-02T07:26:02.835Z,11.30
2022-08-02T07:28:49.301Z,9.85
2022-08-02T07:31:34.787Z,9.95
2022-08-02T07:34:20.573Z,8.90
2022-08-02T07:37:05.597Z,8.88
2022-08-02T07:39:55.065Z,7.78
2022-08-02T07:42:42.589Z,7.50
2022-08-02T07:45:27.967Z,7.70
2022-08-02T07:48:13.066Z,7.65
2022-08-02T07:50:58.546Z,7.43
2022-08-02T07:53:51.214Z,7.60
2022-08-02T07:56:47.560Z,7.38
2022-08-02T07:59:42.449Z,6.93
2022-08-02T08:02:27.833Z,6.85
2022-08-02T08:05:13.811Z,6.72
2022-08-02T08:07:59.111Z,5.65
2022-08-02T08:10:44.816Z,5.53
2022-08-02T08:13:30.279Z,24.48
2022-08-02T08:16:15.581Z,6.00
2022-08-02T08:19:02.244Z,5.32
2022-08-02T08:21:47.248Z,5.75
2022-08-02T08:24:32.652Z,4.85
2022-08-02T08:27:18.344Z,5.65
2022-08-02T08:30:04.060Z,5.15
2022-08-02T08:32:49.404Z,5.50
2022-08-02T08:35:35.744Z,5.40
2022-08-02T08:38:20.951Z,5.40
2022-08-02T08:41:08.488Z,4.93
2022-08-02T08:43:53.891Z,4.53
2022-08-02T08:46:43.075Z,4.00
2022-08-02T08:49:34.909Z,4.25
2022-08-02T08:52:25.512Z,4.50
2022-08-02T08:55:10.884Z,4.00
2022-08-02T08:57:58.475Z,3.90
2022-08-02T09:00:44.026Z,4.10
2022-08-02T09:03:34.030Z,4.20
2022-08-02T09:06:19.426Z,4.00
2022-08-02T09:09:04.970Z,3.92
2022-08-02T09:11:50.575Z,4.45
2022-08-02T09:14:35.619Z,2.80
2022-08-02T09:17:21.446Z,3.00
2022-08-02T09:20:08.823Z,3.35
2022-08-02T09:23:07.466Z,3.38
2022-08-02T09:25:59.415Z,3.33
2022-08-02T09:28:48.130Z,3.17
2022-08-02T09:31:34.469Z,3.20
2022-08-02T09:34:20.437Z,3.00
2022-08-02T09:37:30.811Z,3.40
2022-08-02T09:40:16.112Z,2.53
2022-08-02T09:43:01.415Z,3.15
2022-08-02T09:45:46.798Z,2.80
2022-08-02T09:48:32.137Z,2.88
2022-08-02T09:51:21.618Z,2.70
2022-08-02T09:54:10.633Z,2.60
2022-08-02T09:57:00.187Z,2.63
2022-08-02T09:59:54.517Z,2.42
2022-08-02T10:02:39.989Z,2.42
2022-08-02T10:05:30.204Z,2.40
2022-08-02T10:08:20.273Z,2.83
2022-08-02T10:11:05.434Z,2.38
2022-08-02T10:13:51.298Z,2.20
2022-08-02T10:16:40.190Z,2.90
2022-08-02T10:20:00.175Z,2.55
2022-08-02T10:22:33.777Z,2.30
2022-08-02T10:25:21.694Z,4.00
2022-08-02T10:28:07.037Z,14.05
2022-08-02T10:30:55.397Z,1.95
2022-08-02T10:33:41.718Z,1.95
2022-08-02T10:36:32.246Z,2.13
2022-08-02T10:39:17.297Z,1.85
2022-08-02T10:42:02.811Z,2.20
2022-08-02T10:44:48.148Z,1.88
2022-08-02T10:47:33.451Z,1.60
2022-08-02T10:50:18.339Z,1.80
2022-08-02T10:53:22.180Z,2.05
2022-08-02T10:56:09.402Z,1.85
2022-08-02T10:59:26.261Z,1.90
2022-08-02T11:02:13.297Z,2.10
2022-08-02T11:05:04.503Z,2.15
2022-08-02T11:07:50.303Z,2.13
2022-08-02T11:10:39.505Z,1.60
2022-08-02T11:13:24.902Z,1.92
2022-08-02T11:16:11.983Z,2.03
2022-08-02T11:18:57.284Z,2.00
2022-08-02T11:22:00.772Z,1.80
2022-08-02T11:24:46.135Z,2.03
2022-08-02T11:27:32.398Z,2.00
2022-08-02T11:30:17.883Z,2.03
2022-08-02T11:33:04.038Z,1.92
2022-08-02T11:35:50.161Z,1.90
2022-08-02T11:38:35.214Z,2.20
2022-08-02T11:41:46.219Z,2.33
2022-08-02T11:44:29.457Z,2.10
2022-08-02T11:47:14.802Z,1.90
2022-08-02T11:50:07.064Z,2.50
2022-08-02T11:52:52.562Z,2.00
2022-08-02T11:55:37.704Z,2.30
2022-08-02T11:58:22.763Z,2.17
2022-08-02T12:01:07.711Z,2.40
2022-08-02T12:03:53.974Z,1.92
2022-08-02T12:06:39.478Z,2.50
2022-08-02T12:09:27.615Z,2.20
2022-08-02T12:12:13.469Z,2.15
2022-08-02T12:14:58.975Z,2.20
2022-08-02T12:17:47.758Z,2.40
2022-08-02T12:20:37.697Z,2.63
2022-08-02T12:23:23.061Z,2.22
2022-08-02T12:26:09.287Z,2.30
2022-08-02T12:29:01.443Z,2.45
2022-08-02T12:31:57.306Z,2.80
2022-08-02T12:34:43.329Z,2.25
2022-08-02T12:37:28.629Z,2.40
2022-08-02T12:40:33.156Z,2.40
2022-08-02T12:43:24.499Z,2.45
2022-08-02T12:46:19.228Z,2.30
2022-08-02T12:49:18.479Z,2.55
2022-08-02T12:52:19.536Z,2.30
2022-08-02T12:55:25.502Z,2.22
2022-08-02T12:58:46.131Z,2.30
2022-08-02T13:01:31.761Z,2.05
2022-08-02T13:04:17.042Z,2.10
2022-08-02T13:07:03.145Z,1.83
2022-08-02T13:09:48.712Z,2.00
2022-08-02T13:12:33.896Z,2.20
2022-08-02T13:15:48.814Z,2.05
2022-08-02T13:18:26.524Z,2.00
2022-08-02T13:21:19.777Z,2.08
2022-08-02T13:24:38.499Z,2.15
2022-08-02T13:27:26.827Z,1.98
2022-08-02T13:30:11.649Z,2.30
2022-08-02T13:33:00.940Z,2.20
2022-08-02T13:35:47.476Z,2.42
2022-08-02T13:38:32.266Z,2.45
2022-08-02T13:41:17.601Z,2.40
2022-08-02T13:44:10.068Z,2.30
2022-08-02T13:46:55.988Z,2.10
2022-08-02T13:49:51.179Z,2.45
2022-08-02T13:52:37.037Z,2.10
2022-08-02T13:55:22.192Z,2.10
2022-08-02T13:58:07.516Z,2.42
2022-08-02T14:00:52.973Z,2.42
2022-08-02T14:04:08.092Z,2.10
2022-08-02T14:06:43.587Z,2.20
2022-08-02T14:09:28.938Z,2.33
2022-08-02T14:12:17.764Z,2.20
2022-08-02T14:15:03.433Z,2.30
2022-08-02T14:17:48.637Z,2.50
2022-08-02T14:20:38.007Z,2.60
2022-08-02T14:23:49.859Z,2.60
2022-08-02T14:26:28.579Z,2.55
2022-08-02T14:29:14.841Z,2.53
2022-08-02T14:32:00.499Z,2.70
2022-08-02T14:34:45.259Z,2.47
2022-08-02T14:37:30.587Z,2.60
2022-08-02T14:40:27.784Z,2.72
2022-08-02T14:43:17.829Z,3.10
2022-08-02T14:46:04.680Z,2.90
2022-08-02T14:48:50.412Z,3.00
2022-08-02T14:51:37.173Z,2.75
2022-08-02T14:54:27.756Z,3.10
2022-08-02T14:57:15.925Z,2.67
2022-08-02T15:00:01.065Z,3.10
2022-08-02T15:02:46.376Z,14.30
2022-08-02T15:05:31.925Z,2.80
2022-08-02T15:08:17.312Z,2.85
2022-08-02T15:11:02.769Z,2.90
2022-08-02T15:13:48.216Z,2.83
2022-08-02T15:16:55.505Z,2.95
2022-08-02T15:19:56.306Z,3.05
2022-08-02T15:22:44.422Z,3.13
2022-08-02T15:25:38.495Z,2.97
2022-08-02T15:28:26.518Z,3.30
2022-08-02T15:31:11.835Z,3.20
2022-08-02T15:34:15.435Z,2.90
2022-08-02T15:37:03.971Z,3.00
2022-08-02T15:39:49.363Z,2.80
2022-08-02T15:42:34.759Z,2.80
2022-08-02T15:45:19.770Z,2.80
2022-08-02T15:48:05.383Z,2.70
2022-08-02T15:50:50.843Z,2.80
2022-08-02T15:53:36.314Z,2.60
2022-08-02T15:56:21.992Z,2.70
2022-08-02T15:59:09.793Z,2.80
2022-08-02T16:01:55.415Z,2.53
2022-08-02T16:04:40.749Z,2.70
2022-08-02T16:07:26.333Z,2.60
2022-08-02T16:10:11.697Z,2.65
2022-08-02T16:12:56.724Z,2.25
2022-08-02T16:15:42.095Z,2.55
2022-08-02T16:18:27.605Z,2.50
2022-08-02T16:21:13.114Z,2.40
2022-08-02T16:24:02.544Z,2.40
2022-08-02T16:26:48.794Z,2.47
2022-08-02T16:29:34.225Z,2.50
2022-08-02T16:32:19.524Z,2.50
2022-08-02T16:35:07.902Z,2.45
2022-08-02T16:37:57.250Z,2.25
2022-08-02T16:40:42.519Z,2.42
2022-08-02T16:43:27.629Z,2.47
2022-08-02T16:46:13.286Z,2.17
2022-08-02T16:50:03.939Z,2.60
2022-08-02T16:52:26.660Z,2.10
2022-08-02T16:55:12.363Z,2.15
2022-08-02T16:57:58.471Z,2.13
2022-08-02T17:00:46.314Z,2.50
2022-08-02T17:03:55.515Z,2.30
2022-08-02T17:06:37.026Z,2.30
2022-08-02T17:10:04.432Z,2.53
2022-08-02T17:12:27.364Z,2.40
2022-08-02T17:16:01.156Z,2.22
2022-08-02T17:18:17.899Z,2.20
2022-08-02T17:21:11.994Z,2.30
2022-08-02T17:24:04.967Z,2.20
2022-08-02T17:26:52.791Z,2.22
2022-08-02T17:29:39.114Z,2.28
2022-08-02T17:32:29.108Z,2.47
2022-08-02T17:35:15.417Z,2.10
2022-08-02T17:38:00.686Z,2.30
2022-08-02T17:40:46.175Z,2.40
2022-08-02T17:43:31.643Z,2.20
2022-08-02T17:46:17.381Z,2.45
2022-08-02T17:49:02.545Z,2.10
2022-08-02T17:52:49.577Z,2.28
2022-08-02T17:54:53.282Z,2.25
2022-08-02T17:57:57.234Z,2.30
2022-08-02T18:00:44.899Z,2.38
2022-08-02T18:03:30.418Z,2.40
2022-08-02T18:06:15.821Z,2.00
2022-08-02T18:09:01.411Z,2.40
2022-08-02T18:11:52.245Z,2.20
2022-08-02T18:14:38.330Z,2.38
2022-08-02T18:17:33.749Z,2.40
2022-08-02T18:20:19.244Z,2.15
2022-08-02T18:23:10.938Z,2.40
2022-08-02T18:25:58.451Z,2.22
2022-08-02T18:28:43.769Z,2.40
2022-08-02T18:31:39.559Z,2.15
2022-08-02T18:34:24.780Z,2.25
2022-08-02T18:37:10.225Z,2.30
2022-08-02T18:39:55.592Z,2.10
2022-08-02T18:42:41.026Z,2.20
2022-08-02T18:45:42.087Z,2.22
2022-08-02T18:48:31.394Z,2.20
2022-08-02T18:51:19.173Z,2.40
2022-08-02T18:54:05.223Z,2.40
2022-08-02T18:56:50.509Z,2.38
2022-08-02T18:59:37.529Z,2.78
2022-08-02T19:02:22.634Z,2.65
2022-08-02T19:05:10.081Z,2.70
2022-08-02T19:07:55.588Z,2.92
2022-08-02T19:10:49.375Z,2.83
2022-08-02T19:13:39.349Z,2.80
2022-08-02T19:16:27.727Z,2.97
2022-08-02T19:22:30.206Z,2.80
2022-08-02T19:25:16.975Z,3.28
2022-08-02T19:28:03.738Z,3.08
2022-08-02T19:30:49.413Z,3.20
2022-08-02T19:34:06.098Z,3.17
2022-08-02T19:36:44.390Z,3.25
2022-08-02T19:39:29.980Z,2.70
2022-08-02T19:42:16.443Z,3.45
2022-08-02T19:45:05.414Z,3.10
2022-08-02T19:47:54.516Z,3.03
2022-08-02T19:50:49.394Z,3.00
2022-08-02T19:53:48.813Z,3.25
2022-08-02T19:56:34.414Z,2.90
2022-08-02T19:59:22.285Z,3.63
2022-08-02T20:02:16.457Z,3.08
2022-08-02T20:08:10.312Z,3.50
2022-08-02T20:11:15.890Z,3.30
2022-08-02T20:14:02.500Z,3.38
2022-08-02T20:16:47.722Z,3.30
2022-08-02T20:19:41.154Z,3.40
2022-08-02T20:22:32.583Z,3.20
2022-08-02T20:25:21.676Z,3.38
2022-08-02T20:28:10.500Z,3.13
2022-08-02T20:30:55.849Z,3.45
2022-08-02T20:33:55.837Z,2.92
2022-08-02T20:36:41.984Z,3.22
2022-08-02T20:42:31.911Z,3.20
2022-08-02T20:45:18.744Z,3.45
2022-08-02T20:48:04.634Z,3.53
2022-08-02T20:50:51.995Z,3.17
2022-08-02T20:53:56.496Z,3.50
2022-08-02T20:56:41.839Z,3.28
2022-08-02T20:59:27.888Z,3.70
2022-08-02T21:02:16.318Z,3.58
2022-08-02T21:05:07.981Z,3.60
2022-08-02T21:08:02.385Z,3.58
2022-08-02T21:10:51.997Z,3.35
2022-08-02T21:13:47.044Z,3.67
2022-08-02T21:16:42.730Z,3.65
2022-08-02T21:19:28.124Z,3.40
2022-08-02T21:22:13.774Z,3.60
2022-08-02T21:25:00.007Z,3.72
2022-08-02T21:27:53.226Z,3.83
2022-08-02T21:30:38.969Z,3.60
2022-08-02T21:33:24.389Z,4.10
2022-08-02T21:36:10.306Z,4.20
2022-08-02T21:38:55.792Z,4.10
2022-08-02T21:41:46.489Z,6.90
2022-08-02T21:44:32.619Z,5.18
2022-08-02T21:47:18.350Z,4.40
2022-08-02T21:50:12.658Z,4.30
2022-08-02T21:53:01.348Z,4.30
2022-08-02T21:56:00.018Z,4.50
2022-08-02T21:58:46.454Z,4.22
2022-08-02T22:01:34.500Z,4.43
2022-08-02T22:04:20.376Z,4.05
2022-08-02T22:07:05.625Z,4.00
2022-08-02T22:09:52.340Z,4.80
2022-08-02T22:12:37.736Z,4.95
2022-08-02T22:18:29.129Z,5.22
2022-08-02T22:21:16.888Z,5.20
2022-08-02T22:24:02.520Z,5.13
2022-08-02T22:26:47.566Z,5.10
2022-08-02T22:29:33.565Z,4.90
2022-08-02T22:32:21.952Z,4.85
2022-08-02T22:35:08.871Z,5.30
2022-08-02T22:38:16.300Z,5.50
2022-08-02T22:40:59.530Z,5.00
2022-08-02T22:43:45.999Z,5.40
2022-08-02T22:46:32.068Z,4.68
2022-08-02T22:49:37.154Z,5.65
2022-08-02T22:52:23.175Z,5.43
2022-08-02T22:55:09.339Z,5.35
2022-08-02T22:57:58.488Z,5.18
2022-08-02T22:58:54.320Z,3.30
2022-08-02T22:58:58.464Z,3.13
2022-08-02T22:59:04.483Z,5.00
2022-08-02T22:59:05.213Z,3.10
2022-08-02T23:00:43.888Z,5.50
2022-08-02T23:03:29.742Z,5.63
2022-08-02T23:06:15.197Z,6.30
2022-08-02T23:09:00.520Z,5.57
2022-08-02T23:11:45.351Z,5.45
2022-08-02T23:14:31.238Z,5.40
2022-08-02T23:17:19.915Z,5.20
2022-08-02T23:20:06.661Z,5.32
2022-08-02T23:22:51.844Z,5.82
2022-08-02T23:25:37.037Z,5.63
2022-08-02T23:28:22.467Z,5.60
2022-08-02T23:31:37.503Z,5.90
2022-08-02T23:34:23.403Z,6.18
2022-08-02T23:37:09.555Z,6.15
2022-08-02T23:39:54.667Z,6.28
2022-08-02T23:42:39.651Z,5.68
2022-08-02T23:45:24.988Z,6.78
2022-08-02T23:48:19.964Z,6.82
2022-08-02T23:51:05.444Z,7.05
2022-08-02T23:53:50.788Z,7.40
2022-08-02T23:56:36.992Z,6.90
2022-08-02T23:59:22.802Z,7.43
